Time;durP1;ratioP1;P1;durP2;ratioP2;P2;SDS_P1;SDS_P2;PMS_P1;PMS_P2;Temp;Humidity;BMP_temperature;BMP_pressure;BME280_temperature;BME280_humidity;BME280_pressure;Samples;Min_cycle;Max_cycle;Signal;HPM_P1;HPM_P2
2021/12/31 00:01:14;;;;;;;;;;;8.70;87.10;;;;;;5034443;28;19963;-65
2021/12/31 00:03:39;;;;;;;;;;;8.80;86.00;;;;;;5016324;28;19913;-62
2021/12/31 00:06:06;;;;;;;;;;;8.60;86.10;;;;;;5034511;28;19919;-62
2021/12/31 00:08:31;;;;;;;;;;;8.40;86.40;;;;;;5034255;28;19967;-62
2021/12/31 00:10:59;;;;;;;;;;;8.40;86.90;;;;;;5034588;28;19910;-61
2021/12/31 00:13:26;;;;;;;;;;;8.30;86.40;;;;;;5034205;28;20395;-61
2021/12/31 00:15:51;;;;;;;;;;;8.20;86.70;;;;;;5034185;28;19913;-60
2021/12/31 00:18:17;;;;;;;;;;;8.00;87.10;;;;;;5034203;28;20395;-61
2021/12/31 00:20:42;;;;;;;;;;;8.00;86.40;;;;;;5034240;28;19909;-62
2021/12/31 00:23:10;;;;;;;;;;;8.00;86.30;;;;;;5034028;28;19909;-61
2021/12/31 00:25:37;;;;;;;;;;;7.90;87.10;;;;;;5034246;28;20384;-61
2021/12/31 00:28:03;;;;;;;;;;;7.90;87.70;;;;;;5016249;28;19971;-60
2021/12/31 00:30:29;;;;;;;;;;;7.90;89.20;;;;;;5033913;28;19919;-62
2021/12/31 00:32:55;;;;;;;;;;;7.90;89.70;;;;;;5033927;28;19995;-62
2021/12/31 00:35:20;;;;;;;;;;;8.00;88.90;;;;;;5033931;28;19908;-61
2021/12/31 00:37:46;;;;;;;;;;;8.10;87.50;;;;;;5012691;28;19928;-61
2021/12/31 00:40:13;;;;;;;;;;;8.00;87.20;;;;;;5013926;28;19916;-61
2021/12/31 00:42:39;;;;;;;;;;;8.00;87.20;;;;;;5014106;28;19909;-66
2021/12/31 00:45:05;;;;;;;;;;;7.80;87.20;;;;;;5013888;28;19983;-61
2021/12/31 00:47:31;;;;;;;;;;;7.70;86.20;;;;;;5013797;28;19921;-61
2021/12/31 00:49:56;;;;;;;;;;;7.60;86.40;;;;;;5014096;28;19917;-62
2021/12/31 00:52:22;;;;;;;;;;;7.60;86.40;;;;;;5013869;28;19949;-61
2021/12/31 00:54:48;;;;;;;;;;;7.50;86.40;;;;;;5013917;28;19917;-61
2021/12/31 00:57:13;;;;;;;;;;;7.50;86.10;;;;;;5012151;28;20016;-61
2021/12/31 00:59:40;;;;;;;;;;;7.40;85.90;;;;;;5013679;28;19996;-65
2021/12/31 01:02:06;;;;;;;;;;;7.40;85.80;;;;;;5014055;28;19948;-63
2021/12/31 01:04:32;;;;;;;;;;;7.30;86.00;;;;;;5013605;28;19952;-62
2021/12/31 01:06:58;;;;;;;;;;;7.30;86.50;;;;;;5013966;28;20397;-62
2021/12/31 01:09:27;;;;;;;;;;;7.30;87.10;;;;;;5013837;28;19910;-64
2021/12/31 01:11:53;;;;;;;;;;;7.30;88.00;;;;;;5013517;28;20400;-61
2021/12/31 01:16:56;;;;;;;;;;;7.40;89.00;;;;;;5013608;28;20000;-61
2021/12/31 01:21:47;;;;;;;;;;;7.60;89.00;;;;;;5013549;28;19909;-66
2021/12/31 01:24:13;;;;;;;;;;;7.80;90.00;;;;;;5013497;28;19918;-62
2021/12/31 01:26:39;;;;;;;;;;;7.90;90.30;;;;;;5013538;28;19910;-61
2021/12/31 01:29:04;;;;;;;;;;;8.00;90.20;;;;;;5013563;28;19940;-65
2021/12/31 01:31:30;;;;;;;;;;;8.10;90.20;;;;;;5013587;28;19972;-63
2021/12/31 01:33:56;;;;;;;;;;;8.10;90.30;;;;;;5013511;28;19910;-62
2021/12/31 01:36:21;;;;;;;;;;;8.20;90.40;;;;;;5017189;28;19977;-63
2021/12/31 01:38:47;;;;;;;;;;;8.20;89.80;;;;;;5033383;28;20008;-65
2021/12/31 01:41:12;;;;;;;;;;;8.20;89.70;;;;;;5033010;28;20348;-62
2021/12/31 01:43:39;;;;;;;;;;;8.20;90.00;;;;;;5033022;28;19995;-62
2021/12/31 01:46:11;;;;;;;;;;;8.10;90.10;;;;;;5033272;28;19917;-61
2021/12/31 01:48:48;;;;;;;;;;;8.20;90.20;;;;;;5033225;28;20296;-60
2021/12/31 01:51:14;;;;;;;;;;;8.20;90.10;;;;;;5032958;28;20008;-60
2021/12/31 01:53:39;;;;;;;;;;;8.20;90.20;;;;;;5032701;28;19909;-59
2021/12/31 01:56:05;;;;;;;;;;;8.20;90.60;;;;;;5032880;28;19913;-64
2021/12/31 01:58:32;;;;;;;;;;;8.20;90.70;;;;;;5032871;28;19952;-59
2021/12/31 02:01:03;;;;;;;;;;;8.30;90.60;;;;;;5033045;28;19910;-63
2021/12/31 02:03:29;;;;;;;;;;;8.30;90.50;;;;;;5032687;28;19927;-65
2021/12/31 02:05:55;;;;;;;;;;;8.40;90.30;;;;;;5032999;28;19936;-62
2021/12/31 02:08:21;;;;;;;;;;;8.30;90.40;;;;;;5032941;28;20368;-61
2021/12/31 02:10:51;;;;;;;;;;;8.20;90.50;;;;;;5035985;28;19916;-61
2021/12/31 02:13:17;;;;;;;;;;;8.10;90.60;;;;;;5036800;28;20303;-65
2021/12/31 02:15:42;;;;;;;;;;;8.10;90.70;;;;;;5036530;28;19955;-61
2021/12/31 02:18:09;;;;;;;;;;;8.10;90.70;;;;;;5036615;28;19956;-60
2021/12/31 02:20:44;;;;;;;;;;;8.20;90.70;;;;;;5036407;28;19917;-62
2021/12/31 02:23:17;;;;;;;;;;;8.30;90.70;;;;;;5018679;28;19913;-61
2021/12/31 02:25:43;;;;;;;;;;;8.30;90.50;;;;;;5036417;28;20349;-60
2021/12/31 02:28:08;;;;;;;;;;;8.30;90.50;;;;;;5036386;28;19909;-60
2021/12/31 02:30:34;;;;;;;;;;;8.20;90.60;;;;;;5036456;28;19916;-60
2021/12/31 02:33:00;;;;;;;;;;;8.30;90.40;;;;;;5036263;28;20427;-61
2021/12/31 02:35:25;;;;;;;;;;;8.20;90.60;;;;;;5036527;28;19917;-60
2021/12/31 02:37:51;;;;;;;;;;;8.20;90.50;;;;;;5036048;28;19931;-61
2021/12/31 02:40:18;;;;;;;;;;;8.20;90.50;;;;;;5036094;28;19909;-61
2021/12/31 02:42:44;;;;;;;;;;;8.30;90.50;;;;;;5035997;28;19913;-60
2021/12/31 02:45:10;;;;;;;;;;;8.20;90.60;;;;;;5036120;28;19979;-61
2021/12/31 02:47:43;;;;;;;;;;;8.10;90.60;;;;;;5035936;28;19909;-61
2021/12/31 02:50:12;;;;;;;;;;;8.10;90.00;;;;;;5035848;28;20353;-61
2021/12/31 02:52:37;;;;;;;;;;;8.00;90.40;;;;;;5035770;28;19959;-60
2021/12/31 02:55:03;;;;;;;;;;;7.90;90.40;;;;;;5035784;28;19909;-61
2021/12/31 02:57:29;;;;;;;;;;;8.00;90.10;;;;;;5035702;28;19916;-60
2021/12/31 02:59:54;;;;;;;;;;;7.80;90.40;;;;;;5035776;28;19917;-61
2021/12/31 03:02:24;;;;;;;;;;;7.70;90.70;;;;;;5035787;28;19954;-61
2021/12/31 03:04:53;;;;;;;;;;;7.90;90.90;;;;;;5035281;28;19929;-61
2021/12/31 03:07:19;;;;;;;;;;;7.90;90.70;;;;;;5035786;28;19910;-60
2021/12/31 03:09:47;;;;;;;;;;;7.90;90.70;;;;;;5035522;28;19992;-61
2021/12/31 03:12:14;;;;;;;;;;;7.90;91.00;;;;;;5035554;28;20372;-61
2021/12/31 03:14:39;;;;;;;;;;;7.90;91.00;;;;;;5035521;28;19909;-63
2021/12/31 03:17:05;;;;;;;;;;;8.00;90.50;;;;;;5035398;28;19909;-61
2021/12/31 03:19:31;;;;;;;;;;;7.90;90.40;;;;;;5035492;28;20418;-62
2021/12/31 03:21:56;;;;;;;;;;;8.00;90.50;;;;;;5035273;28;19909;-62
2021/12/31 03:24:22;;;;;;;;;;;7.90;90.60;;;;;;5035471;28;19917;-61
2021/12/31 03:26:47;;;;;;;;;;;7.90;90.20;;;;;;5035486;28;19909;-59
2021/12/31 03:29:13;;;;;;;;;;;7.80;90.30;;;;;;5035315;28;19913;-61
2021/12/31 03:31:38;;;;;;;;;;;7.70;90.60;;;;;;5035051;28;19932;-61
2021/12/31 03:34:04;;;;;;;;;;;7.70;90.70;;;;;;5035158;28;19913;-60
2021/12/31 03:36:30;;;;;;;;;;;7.70;90.60;;;;;;5035240;28;19913;-60
2021/12/31 03:38:55;;;;;;;;;;;7.70;90.70;;;;;;5035216;28;19913;-60
2021/12/31 03:41:21;;;;;;;;;;;7.60;90.80;;;;;;5035004;28;20006;-63
2021/12/31 03:43:46;;;;;;;;;;;7.70;90.70;;;;;;5035027;28;19913;-62
2021/12/31 03:46:12;;;;;;;;;;;7.70;90.50;;;;;;5034973;28;19909;-60
2021/12/31 03:48:37;;;;;;;;;;;7.70;90.70;;;;;;5034667;28;19931;-64
2021/12/31 03:51:03;;;;;;;;;;;7.70;90.60;;;;;;5034923;28;19909;-67
2021/12/31 03:53:29;;;;;;;;;;;7.80;90.30;;;;;;5034833;28;19909;-66
2021/12/31 03:55:54;;;;;;;;;;;7.90;90.30;;;;;;5034845;28;19915;-66
2021/12/31 03:58:20;;;;;;;;;;;7.90;90.30;;;;;;5034845;28;20420;-63
2021/12/31 04:00:46;;;;;;;;;;;7.80;90.40;;;;;;5034544;28;20343;-59
2021/12/31 04:03:11;;;;;;;;;;;7.70;90.50;;;;;;5034656;28;20353;-62
2021/12/31 04:05:38;;;;;;;;;;;7.60;90.70;;;;;;5034413;28;19923;-64
2021/12/31 04:08:04;;;;;;;;;;;7.70;90.90;;;;;;5034601;28;19909;-61
2021/12/31 04:10:30;;;;;;;;;;;7.60;91.00;;;;;;5034643;28;19976;-60
2021/12/31 04:12:55;;;;;;;;;;;7.60;91.10;;;;;;5034349;28;19992;-67
2021/12/31 04:15:22;;;;;;;;;;;7.70;90.90;;;;;;5034434;28;19969;-65
2021/12/31 04:17:47;;;;;;;;;;;7.80;90.00;;;;;;5034295;28;20260;-65
2021/12/31 04:20:24;;;;;;;;;;;7.70;89.60;;;;;;5034481;28;19909;-61
2021/12/31 04:22:54;;;;;;;;;;;7.60;90.30;;;;;;5034199;28;19909;-64
2021/12/31 04:25:21;;;;;;;;;;;7.60;90.70;;;;;;5034097;28;19917;-64
2021/12/31 04:27:46;;;;;;;;;;;7.60;90.80;;;;;;5034202;28;19948;-66
2021/12/31 04:30:12;;;;;;;;;;;7.60;91.00;;;;;;5034005;28;19949;-66
2021/12/31 04:32:39;;;;;;;;;;;7.70;90.70;;;;;;5033533;28;20282;-67
2021/12/31 04:35:07;;;;;;;;;;;7.70;90.30;;;;;;5033206;28;20210;-63
2021/12/31 04:37:33;;;;;;;;;;;7.80;90.20;;;;;;5033955;28;20103;-65
2021/12/31 04:39:58;;;;;;;;;;;7.70;90.40;;;;;;5033957;28;19913;-62
2021/12/31 04:42:24;;;;;;;;;;;7.60;90.50;;;;;;5033576;28;19956;-66
2021/12/31 04:44:50;;;;;;;;;;;7.60;90.70;;;;;;5033606;28;19923;-66
2021/12/31 04:47:15;;;;;;;;;;;7.50;90.60;;;;;;5033950;28;19935;-60
2021/12/31 04:49:41;;;;;;;;;;;7.60;90.40;;;;;;5033701;28;20358;-61
2021/12/31 04:52:06;;;;;;;;;;;7.50;90.10;;;;;;5033673;28;19996;-66
2021/12/31 04:54:32;;;;;;;;;;;7.40;90.10;;;;;;5015714;28;19909;-65
2021/12/31 04:56:59;;;;;;;;;;;7.40;90.20;;;;;;5033562;28;19916;-63
2021/12/31 04:59:25;;;;;;;;;;;7.20;90.10;;;;;;5033830;28;19920;-65
2021/12/31 05:01:50;;;;;;;;;;;7.10;90.20;;;;;;5033400;28;19913;-66
2021/12/31 05:04:16;;;;;;;;;;;7.10;90.10;;;;;;5033583;28;20015;-64
2021/12/31 05:06:42;;;;;;;;;;;7.20;90.00;;;;;;5033381;28;19920;-61
2021/12/31 05:09:08;;;;;;;;;;;7.10;90.00;;;;;;5033586;28;20340;-64
2021/12/31 05:11:34;;;;;;;;;;;7.10;89.10;;;;;;5033402;28;19955;-63
2021/12/31 05:13:59;;;;;;;;;;;7.20;89.30;;;;;;5033346;28;20100;-64
2021/12/31 05:16:25;;;;;;;;;;;7.20;89.20;;;;;;5033470;28;19918;-59
2021/12/31 05:18:50;;;;;;;;;;;7.10;88.30;;;;;;5033347;28;20000;-59
2021/12/31 05:21:16;;;;;;;;;;;7.10;88.20;;;;;;5033438;28;19909;-61
2021/12/31 05:23:41;;;;;;;;;;;7.00;88.30;;;;;;5033372;28;19959;-61
2021/12/31 05:26:07;;;;;;;;;;;6.90;87.90;;;;;;5033402;28;20012;-65
2021/12/31 05:28:33;;;;;;;;;;;6.90;88.60;;;;;;5033373;28;20323;-61
2021/12/31 05:30:59;;;;;;;;;;;6.80;89.40;;;;;;5033361;28;20262;-62
2021/12/31 05:33:24;;;;;;;;;;;7.00;90.00;;;;;;5033245;28;19917;-60
2021/12/31 05:35:50;;;;;;;;;;;6.90;89.60;;;;;;5033392;28;19912;-68
2021/12/31 05:38:15;;;;;;;;;;;6.90;90.00;;;;;;5032964;28;19925;-65
2021/12/31 05:40:41;;;;;;;;;;;7.10;89.90;;;;;;5033142;28;19917;-64
2021/12/31 05:43:06;;;;;;;;;;;7.20;89.60;;;;;;5033893;28;20349;-67
2021/12/31 05:45:32;;;;;;;;;;;7.10;90.10;;;;;;5037161;28;19924;-65
2021/12/31 05:47:58;;;;;;;;;;;7.10;90.70;;;;;;5037257;28;19909;-67
2021/12/31 05:50:29;;;;;;;;;;;7.10;90.90;;;;;;5037268;28;19909;-66
2021/12/31 05:52:56;;;;;;;;;;;7.10;90.90;;;;;;5037076;28;19913;-61
2021/12/31 05:55:22;;;;;;;;;;;7.10;90.90;;;;;;5036964;28;19916;-64
2021/12/31 05:57:47;;;;;;;;;;;7.00;90.60;;;;;;5037026;28;19913;-67
2021/12/31 06:00:13;;;;;;;;;;;7.10;90.30;;;;;;5037170;28;20007;-65
2021/12/31 06:02:38;;;;;;;;;;;7.00;90.30;;;;;;5036949;28;19936;-66
2021/12/31 06:05:04;;;;;;;;;;;7.10;90.50;;;;;;5036858;28;19917;-67
2021/12/31 06:07:30;;;;;;;;;;;7.10;90.30;;;;;;5037108;28;19909;-63
2021/12/31 06:09:55;;;;;;;;;;;7.20;90.30;;;;;;5036834;28;20356;-66
2021/12/31 06:12:23;;;;;;;;;;;7.10;90.10;;;;;;5037124;28;19940;-65
2021/12/31 06:14:49;;;;;;;;;;;7.00;90.10;;;;;;5036651;28;19910;-65
2021/12/31 06:17:17;;;;;;;;;;;7.10;90.20;;;;;;5036784;28;19992;-63
2021/12/31 06:19:42;;;;;;;;;;;7.30;90.00;;;;;;5036854;28;19955;-59
2021/12/31 06:22:08;;;;;;;;;;;7.30;89.00;;;;;;5036548;28;19909;-61
2021/12/31 06:24:33;;;;;;;;;;;7.40;89.10;;;;;;5036360;28;19920;-60
2021/12/31 06:26:59;;;;;;;;;;;7.20;89.70;;;;;;5036546;28;20418;-62
2021/12/31 06:29:25;;;;;;;;;;;7.20;90.10;;;;;;5036615;28;20313;-59
2021/12/31 06:31:50;;;;;;;;;;;7.10;90.30;;;;;;5036459;28;19910;-61
2021/12/31 06:34:16;;;;;;;;;;;7.20;90.70;;;;;;5036234;28;20324;-61
2021/12/31 06:36:41;;;;;;;;;;;7.20;90.70;;;;;;5036211;28;20265;-65
2021/12/31 06:39:08;;;;;;;;;;;7.20;90.80;;;;;;5036213;28;19964;-64
2021/12/31 06:41:33;;;;;;;;;;;7.20;91.00;;;;;;5035925;28;19932;-62
2021/12/31 06:43:59;;;;;;;;;;;7.20;91.10;;;;;;5035979;28;19913;-61
2021/12/31 06:46:24;;;;;;;;;;;7.30;91.00;;;;;;5018275;28;20376;-61
2021/12/31 06:48:50;;;;;;;;;;;7.30;91.20;;;;;;5036198;28;19909;-60
2021/12/31 06:51:15;;;;;;;;;;;7.30;91.20;;;;;;5035936;28;19909;-59
2021/12/31 06:53:41;;;;;;;;;;;7.40;91.00;;;;;;5035431;28;20299;-60
2021/12/31 06:56:07;;;;;;;;;;;7.40;90.80;;;;;;5035233;28;20348;-61
2021/12/31 06:58:32;;;;;;;;;;;7.40;91.00;;;;;;5035566;28;20376;-62
2021/12/31 07:00:58;;;;;;;;;;;7.50;91.10;;;;;;5035781;28;19913;-61
2021/12/31 07:03:23;;;;;;;;;;;7.80;92.20;;;;;;5035831;28;19976;-60
2021/12/31 07:05:49;;;;;;;;;;;8.40;92.80;;;;;;5035662;28;19952;-61
2021/12/31 07:08:15;;;;;;;;;;;8.60;90.30;;;;;;5035463;28;20352;-62
2021/12/31 07:10:40;;;;;;;;;;;8.70;89.10;;;;;;5035702;28;19921;-60
2021/12/31 07:13:10;;;;;;;;;;;8.90;88.20;;;;;;5034638;28;19928;-62
2021/12/31 07:15:44;;;;;;;;;;;9.00;87.30;;;;;;5035483;28;20261;-61
2021/12/31 07:18:10;;;;;;;;;;;9.00;86.80;;;;;;5034988;28;20380;-63
2021/12/31 07:20:36;;;;;;;;;;;9.30;86.40;;;;;;5035281;28;19909;-62
2021/12/31 07:23:06;;;;;;;;;;;9.70;85.90;;;;;;5035183;28;19928;-61
2021/12/31 07:25:32;;;;;;;;;;;9.70;83.70;;;;;;5035119;28;19963;-61
2021/12/31 07:27:58;;;;;;;;;;;9.80;82.60;;;;;;5035280;28;19916;-58
2021/12/31 07:30:23;;;;;;;;;;;9.40;82.50;;;;;;5035139;28;20008;-66
2021/12/31 07:32:49;;;;;;;;;;;9.10;84.00;;;;;;5035202;28;20372;-68
2021/12/31 07:35:14;;;;;;;;;;;8.90;84.70;;;;;;5035018;28;19915;-69
2021/12/31 07:37:40;;;;;;;;;;;8.50;86.30;;;;;;5035037;28;19931;-62
2021/12/31 07:40:07;;;;;;;;;;;8.40;87.90;;;;;;5035144;28;19949;-61
2021/12/31 07:42:32;;;;;;;;;;;8.30;89.10;;;;;;5049990;28;20027;-63
2021/12/31 07:44:58;;;;;;;;;;;8.20;90.00;;;;;;5054116;28;20424;-63
2021/12/31 07:47:23;;;;;;;;;;;8.10;90.20;;;;;;5054087;28;19951;-62
2021/12/31 07:49:49;;;;;;;;;;;8.20;90.50;;;;;;5054158;28;19932;-63
2021/12/31 07:52:14;;;;;;;;;;;8.20;90.40;;;;;;5054175;28;20314;-63
2021/12/31 07:54:40;;;;;;;;;;;8.20;90.60;;;;;;5053691;28;19920;-61
2021/12/31 07:57:06;;;;;;;;;;;8.30;90.10;;;;;;5054767;28;20378;-61
2021/12/31 07:59:32;;;;;;;;;;;8.20;89.90;;;;;;5054586;28;19912;-63
2021/12/31 08:01:57;;;;;;;;;;;8.20;90.30;;;;;;5054288;28;19954;-63
2021/12/31 08:04:23;;;;;;;;;;;8.20;90.50;;;;;;5054300;28;19971;-64
2021/12/31 08:06:48;;;;;;;;;;;8.10;90.50;;;;;;5052447;28;20327;-65
2021/12/31 08:09:14;;;;;;;;;;;7.90;90.80;;;;;;5053899;28;19913;-66
2021/12/31 08:11:41;;;;;;;;;;;7.90;90.90;;;;;;5035618;28;19909;-62
2021/12/31 08:14:06;;;;;;;;;;;8.00;90.90;;;;;;5052671;28;19963;-65
2021/12/31 08:16:32;;;;;;;;;;;8.00;90.70;;;;;;5060191;28;19951;-65
2021/12/31 08:18:57;;;;;;;;;;;8.10;90.70;;;;;;5065605;28;19915;-65
2021/12/31 08:21:23;;;;;;;;;;;8.20;90.50;;;;;;5054856;28;19909;-66
2021/12/31 08:23:48;;;;;;;;;;;8.10;90.60;;;;;;5052910;28;19913;-65
2021/12/31 08:26:14;;;;;;;;;;;8.30;90.20;;;;;;5052859;28;19913;-66
2021/12/31 08:28:40;;;;;;;;;;;8.20;90.10;;;;;;5052822;28;20364;-66
2021/12/31 08:31:05;;;;;;;;;;;8.20;90.30;;;;;;5057836;28;19913;-72
2021/12/31 08:33:31;;;;;;;;;;;8.20;90.50;;;;;;5052932;28;19962;-75
2021/12/31 08:35:57;;;;;;;;;;;8.20;90.50;;;;;;5052673;28;19916;-66
2021/12/31 08:38:23;;;;;;;;;;;8.20;90.50;;;;;;5052337;28;19983;-67
2021/12/31 08:40:49;;;;;;;;;;;8.20;90.70;;;;;;5052628;28;19909;-64
2021/12/31 08:43:14;;;;;;;;;;;8.20;90.70;;;;;;5052587;28;19916;-63
2021/12/31 08:45:40;;;;;;;;;;;8.30;90.70;;;;;;5052875;28;19998;-66
2021/12/31 08:48:05;;;;;;;;;;;8.50;90.20;;;;;;5052993;28;19952;-66
2021/12/31 08:50:31;;;;;;;;;;;8.60;90.00;;;;;;5052893;28;19920;-65
2021/12/31 08:52:57;;;;;;;;;;;8.50;90.00;;;;;;5053036;28;19911;-64
2021/12/31 08:55:23;;;;;;;;;;;8.60;90.10;;;;;;5053494;28;19912;-64
2021/12/31 08:57:48;;;;;;;;;;;8.60;90.00;;;;;;5053314;28;20058;-64
2021/12/31 09:00:15;;;;;;;;;;;8.50;90.20;;;;;;5053635;28;20006;-64
2021/12/31 09:02:40;;;;;;;;;;;8.60;90.10;;;;;;5053366;28;19978;-64
2021/12/31 09:05:07;;;;;;;;;;;8.60;90.10;;;;;;5053072;28;20407;-66
2021/12/31 09:07:33;;;;;;;;;;;8.60;90.20;;;;;;5053645;28;20252;-65
2021/12/31 09:09:59;;;;;;;;;;;8.40;90.30;;;;;;5053295;28;19920;-64
2021/12/31 09:12:24;;;;;;;;;;;8.40;90.60;;;;;;5053311;28;19948;-65
2021/12/31 09:14:50;;;;;;;;;;;8.30;90.70;;;;;;5053090;28;19909;-64
2021/12/31 09:17:15;;;;;;;;;;;8.30;90.30;;;;;;5053117;28;20003;-65
2021/12/31 09:19:41;;;;;;;;;;;8.30;90.60;;;;;;5052987;28;20483;-65
2021/12/31 09:22:07;;;;;;;;;;;8.40;90.60;;;;;;5053102;28;20222;-63
2021/12/31 09:24:32;;;;;;;;;;;8.50;90.60;;;;;;5052945;28;19913;-65
2021/12/31 09:26:58;;;;;;;;;;;8.60;90.40;;;;;;5053262;28;19909;-64
2021/12/31 09:29:23;;;;;;;;;;;8.70;90.10;;;;;;5053026;28;19992;-62
2021/12/31 09:31:50;;;;;;;;;;;8.70;89.50;;;;;;5052931;28;19943;-64
2021/12/31 09:34:16;;;;;;;;;;;8.80;89.50;;;;;;5052479;28;19908;-67
2021/12/31 09:36:41;;;;;;;;;;;8.80;89.60;;;;;;5052903;28;19921;-67
2021/12/31 09:39:07;;;;;;;;;;;8.90;89.90;;;;;;5052762;28;19913;-67
2021/12/31 09:41:33;;;;;;;;;;;8.80;89.20;;;;;;5052696;28;19916;-65
2021/12/31 09:43:58;;;;;;;;;;;8.50;90.20;;;;;;5052960;28;19913;-63
2021/12/31 09:46:24;;;;;;;;;;;8.20;90.70;;;;;;5052561;28;19920;-65
2021/12/31 09:48:50;;;;;;;;;;;8.10;91.10;;;;;;5035025;28;19916;-66
2021/12/31 09:51:16;;;;;;;;;;;8.40;91.10;;;;;;5053030;28;20360;-64
2021/12/31 09:53:42;;;;;;;;;;;8.60;90.70;;;;;;5052720;28;20237;-64
2021/12/31 09:56:08;;;;;;;;;;;8.40;90.20;;;;;;5052973;28;19972;-65
2021/12/31 09:58:35;;;;;;;;;;;8.30;90.70;;;;;;5042956;28;19917;-64
2021/12/31 10:01:01;;;;;;;;;;;8.30;91.10;;;;;;5056449;28;19960;-64
2021/12/31 10:03:31;;;;;;;;;;;8.20;91.40;;;;;;5070736;28;19908;-64
2021/12/31 10:06:10;;;;;;;;;;;8.30;91.20;;;;;;5057482;28;20006;-59
2021/12/31 10:08:43;;;;;;;;;;;8.40;90.90;;;;;;5072752;28;19908;-60
2021/12/31 10:11:22;;;;;;;;;;;8.70;90.70;;;;;;5072472;28;19908;-61
2021/12/31 10:13:55;;;;;;;;;;;8.80;90.50;;;;;;5062703;28;19917;-59
2021/12/31 10:16:24;;;;;;;;;;;8.90;90.00;;;;;;5051235;28;19913;-61
2021/12/31 10:18:50;;;;;;;;;;;9.00;89.80;;;;;;5050437;28;19919;-62
2021/12/31 10:21:19;;;;;;;;;;;9.10;90.00;;;;;;5053199;28;19913;-64
2021/12/31 10:23:46;;;;;;;;;;;8.90;89.60;;;;;;5052048;28;19916;-61
2021/12/31 10:26:12;;;;;;;;;;;8.70;90.30;;;;;;5051985;28;20373;-62
2021/12/31 10:28:52;;;;;;;;;;;8.90;90.50;;;;;;5052156;28;19916;-63
2021/12/31 10:31:17;;;;;;;;;;;8.80;90.50;;;;;;5054506;28;19909;-61
2021/12/31 10:33:44;;;;;;;;;;;9.00;90.60;;;;;;5057073;28;19915;-60
2021/12/31 10:36:29;;;;;;;;;;;9.20;90.30;;;;;;5056138;28;19962;-61
2021/12/31 10:38:55;;;;;;;;;;;9.30;89.50;;;;;;5056207;28;19921;-69
2021/12/31 10:41:21;;;;;;;;;;;9.30;89.40;;;;;;5056184;28;19909;-61
2021/12/31 10:43:54;;;;;;;;;;;9.50;89.20;;;;;;5055879;28;19916;-64
2021/12/31 10:46:19;;;;;;;;;;;9.30;89.00;;;;;;5056166;28;19960;-65
2021/12/31 10:48:46;;;;;;;;;;;9.30;89.70;;;;;;5055821;28;19913;-66
2021/12/31 10:51:13;;;;;;;;;;;9.40;89.70;;;;;;5055912;28;20135;-66
2021/12/31 10:53:39;;;;;;;;;;;9.40;88.90;;;;;;5055667;28;19919;-67
2021/12/31 10:56:06;;;;;;;;;;;9.50;88.80;;;;;;5056006;28;19909;-60
2021/12/31 10:58:32;;;;;;;;;;;9.60;88.90;;;;;;5055963;28;19932;-66
2021/12/31 11:00:59;;;;;;;;;;;9.70;88.20;;;;;;5055256;28;19988;-63
2021/12/31 11:03:25;;;;;;;;;;;9.60;88.00;;;;;;5053714;28;19921;-65
2021/12/31 11:05:52;;;;;;;;;;;9.70;88.30;;;;;;5054348;28;20388;-59
2021/12/31 11:08:18;;;;;;;;;;;9.70;88.40;;;;;;5055101;28;19909;-64
2021/12/31 11:10:44;;;;;;;;;;;9.80;88.20;;;;;;5036847;28;20004;-63
2021/12/31 11:13:14;;;;;;;;;;;9.80;87.50;;;;;;5052236;28;20383;-65
2021/12/31 11:15:41;;;;;;;;;;;9.60;87.70;;;;;;5042844;28;19948;-66
2021/12/31 11:18:08;;;;;;;;;;;9.60;88.40;;;;;;5042694;28;20292;-66
2021/12/31 11:20:34;;;;;;;;;;;9.70;88.20;;;;;;5043786;28;19920;-61
2021/12/31 11:23:00;;;;;;;;;;;9.50;88.50;;;;;;5068754;28;20272;-63
2021/12/31 11:25:27;;;;;;;;;;;9.40;89.20;;;;;;5059792;28;19932;-63
2021/12/31 11:27:53;;;;;;;;;;;9.60;89.50;;;;;;5054633;28;19919;-63
2021/12/31 11:30:26;;;;;;;;;;;9.50;89.50;;;;;;5054453;28;19909;-62
2021/12/31 11:32:56;;;;;;;;;;;9.50;89.60;;;;;;5054482;28;20276;-64
2021/12/31 11:35:31;;;;;;;;;;;9.70;89.30;;;;;;5054430;28;19920;-64
2021/12/31 11:37:57;;;;;;;;;;;9.80;88.60;;;;;;5054454;28;20337;-66
2021/12/31 11:40:33;;;;;;;;;;;9.80;88.60;;;;;;5054206;28;19996;-66
2021/12/31 11:43:14;;;;;;;;;;;9.90;88.70;;;;;;5065344;28;19912;-70
2021/12/31 11:45:40;;;;;;;;;;;10.00;88.50;;;;;;5054000;28;19920;-66
2021/12/31 11:48:24;;;;;;;;;;;10.00;87.70;;;;;;5068946;28;20007;-68
2021/12/31 11:51:03;;;;;;;;;;;10.00;87.70;;;;;;5074762;28;19912;-61
2021/12/31 11:53:29;;;;;;;;;;;10.10;87.80;;;;;;5074757;28;19908;-66
2021/12/31 11:55:54;;;;;;;;;;;10.20;87.00;;;;;;5055355;28;20387;-63
2021/12/31 11:58:37;;;;;;;;;;;10.10;87.60;;;;;;5054203;28;19967;-64
2021/12/31 12:01:41;;;;;;;;;;;10.10;87.40;;;;;;5053704;28;19917;-63
2021/12/31 12:04:26;;;;;;;;;;;10.10;87.40;;;;;;4935102;29;19915;-62
2021/12/31 12:06:58;;;;;;;;;;;9.80;87.80;;;;;;4941610;29;19917;-62
2021/12/31 12:09:39;;;;;;;;;;;9.60;89.90;;;;;;4953967;29;19911;-63
2021/12/31 12:12:11;;;;;;;;;;;9.50;90.30;;;;;;4953475;29;19921;-65
2021/12/31 12:14:38;;;;;;;;;;;9.60;90.20;;;;;;4953313;29;19915;-65
2021/12/31 12:17:04;;;;;;;;;;;9.50;90.00;;;;;;4953532;29;19907;-69
2021/12/31 12:19:51;;;;;;;;;;;9.70;90.10;;;;;;4953427;29;20335;-67
2021/12/31 12:22:28;;;;;;;;;;;9.90;89.80;;;;;;4953209;29;20029;-66
2021/12/31 12:24:55;;;;;;;;;;;10.00;89.10;;;;;;4953183;29;20050;-67
2021/12/31 12:27:22;;;;;;;;;;;9.90;88.70;;;;;;4953156;29;19915;-67
2021/12/31 12:29:48;;;;;;;;;;;9.80;89.30;;;;;;4953137;29;19920;-66
2021/12/31 12:32:15;;;;;;;;;;;9.70;90.00;;;;;;4953081;29;20068;-66
2021/12/31 12:34:41;;;;;;;;;;;9.60;89.90;;;;;;4987080;28;19909;-68
2021/12/31 12:37:06;;;;;;;;;;;9.50;90.20;;;;;;5033138;28;19928;-65
2021/12/31 12:39:32;;;;;;;;;;;9.60;90.30;;;;;;5033009;28;19959;-69
2021/12/31 12:41:57;;;;;;;;;;;9.50;90.20;;;;;;5033161;28;20359;-62
2021/12/31 12:44:23;;;;;;;;;;;9.60;90.20;;;;;;5033304;28;20356;-63
2021/12/31 12:46:56;;;;;;;;;;;9.60;90.10;;;;;;5032799;28;19924;-63
2021/12/31 12:49:23;;;;;;;;;;;9.80;90.00;;;;;;5033199;28;20368;-62
2021/12/31 12:51:50;;;;;;;;;;;10.00;89.10;;;;;;5032561;28;19952;-66
2021/12/31 12:54:21;;;;;;;;;;;10.10;88.80;;;;;;5032448;28;19932;-66
2021/12/31 12:56:47;;;;;;;;;;;10.10;88.30;;;;;;5032717;28;19959;-62
2021/12/31 12:59:20;;;;;;;;;;;10.20;88.40;;;;;;5033144;28;19916;-61
2021/12/31 13:01:46;;;;;;;;;;;10.20;88.20;;;;;;5032636;28;19945;-63
2021/12/31 13:04:13;;;;;;;;;;;10.20;87.60;;;;;;5044260;28;19967;-64
2021/12/31 13:06:42;;;;;;;;;;;10.20;87.40;;;;;;5052748;28;19912;-63
2021/12/31 13:09:07;;;;;;;;;;;10.20;87.40;;;;;;5057341;28;19916;-65
2021/12/31 13:11:34;;;;;;;;;;;10.20;87.70;;;;;;5055723;28;19910;-65
2021/12/31 13:13:59;;;;;;;;;;;10.20;87.70;;;;;;5039592;28;19916;-62
2021/12/31 13:16:25;;;;;;;;;;;10.30;87.50;;;;;;5056832;28;19908;-61
2021/12/31 13:18:55;;;;;;;;;;;10.30;87.40;;;;;;5047106;28;19913;-65
2021/12/31 13:21:21;;;;;;;;;;;10.30;87.60;;;;;;5065305;28;19920;-60
2021/12/31 13:23:51;;;;;;;;;;;10.30;87.30;;;;;;5059535;28;19932;-61
2021/12/31 13:26:17;;;;;;;;;;;10.00;88.00;;;;;;5057792;28;19924;-68
2021/12/31 13:28:43;;;;;;;;;;;10.10;88.30;;;;;;5063047;28;20269;-61
2021/12/31 13:31:09;;;;;;;;;;;10.20;88.20;;;;;;5056806;28;19928;-62
2021/12/31 13:33:39;;;;;;;;;;;10.30;87.80;;;;;;5060569;28;20427;-64
2021/12/31 13:36:19;;;;;;;;;;;10.20;87.80;;;;;;5054938;28;20005;-63
2021/12/31 13:39:00;;;;;;;;;;;10.30;87.70;;;;;;5047296;28;19913;-60
2021/12/31 13:41:26;;;;;;;;;;;10.40;87.40;;;;;;5059113;28;19917;-62
2021/12/31 13:43:55;;;;;;;;;;;10.20;87.30;;;;;;5056942;28;19908;-62
2021/12/31 13:46:41;;;;;;;;;;;10.30;87.40;;;;;;5068532;28;19932;-60
2021/12/31 13:49:11;;;;;;;;;;;10.30;87.30;;;;;;5061124;28;19913;-63
2021/12/31 13:51:38;;;;;;;;;;;10.40;86.60;;;;;;5052935;28;19916;-62
2021/12/31 13:54:04;;;;;;;;;;;10.40;85.80;;;;;;5065463;28;19916;-62
2021/12/31 13:56:50;;;;;;;;;;;10.20;86.00;;;;;;5055184;28;20315;-62
2021/12/31 13:59:16;;;;;;;;;;;10.10;86.50;;;;;;5056768;28;19920;-62
2021/12/31 14:02:05;;;;;;;;;;;10.10;87.00;;;;;;5058219;28;19930;-61
2021/12/31 14:04:31;;;;;;;;;;;10.20;87.00;;;;;;5044743;28;19916;-63
2021/12/31 14:07:11;;;;;;;;;;;10.10;86.80;;;;;;5040534;28;19916;-66
2021/12/31 14:09:37;;;;;;;;;;;10.10;87.50;;;;;;5061696;28;19913;-61
2021/12/31 14:12:03;;;;;;;;;;;10.00;87.20;;;;;;5054815;28;20372;-61
2021/12/31 14:14:28;;;;;;;;;;;10.00;87.30;;;;;;5054917;28;19920;-62
2021/12/31 14:16:54;;;;;;;;;;;10.00;87.40;;;;;;5055449;28;19909;-66
2021/12/31 14:19:19;;;;;;;;;;;10.00;87.30;;;;;;5054984;28;19908;-61
2021/12/31 14:21:45;;;;;;;;;;;10.00;87.30;;;;;;5054713;28;19967;-62
2021/12/31 14:24:12;;;;;;;;;;;9.90;87.70;;;;;;5055922;28;19975;-62
2021/12/31 14:26:38;;;;;;;;;;;9.60;88.40;;;;;;5054496;28;19925;-61
2021/12/31 14:29:04;;;;;;;;;;;9.70;88.90;;;;;;5050985;28;19916;-61
2021/12/31 14:31:29;;;;;;;;;;;9.80;89.00;;;;;;5069650;28;19908;-58
2021/12/31 14:33:55;;;;;;;;;;;9.80;88.40;;;;;;5059664;28;20266;-61